sensor_id;sensor_type;location;lat;lon;timestamp;P1;durP1;ratioP1;P2;durP2;ratioP2
20794;SDS011;28087;-33.874;151.240;2023-12-20T00:02:42;9.25;;;2.00;;
20794;SDS011;28087;-33.874;151.240;2023-12-20T00:05:49;10.77;;;1.92;;
20794;SDS011;28087;-33.874;151.240;2023-12-20T00:08:56;11.75;;;1.90;;
20794;SDS011;28087;-33.874;151.240;2023-12-20T00:12:02;13.32;;;1.80;;
20794;SDS011;28087;-33.874;151.240;2023-12-20T00:15:14;10.55;;;1.88;;
20794;SDS011;28087;-33.874;151.240;2023-12-20T00:18:41;13.00;;;1.90;;
20794;SDS011;28087;-33.874;151.240;2023-12-20T00:21:49;11.45;;;1.92;;
20794;SDS011;28087;-33.874;151.240;2023-12-20T00:24:55;11.60;;;2.42;;
20794;SDS011;28087;-33.874;151.240;2023-12-20T00:28:01;11.98;;;1.90;;
20794;SDS011;28087;-33.874;151.240;2023-12-20T00:31:01;15.73;;;2.60;;
20794;SDS011;28087;-33.874;151.240;2023-12-20T00:34:04;11.05;;;1.80;;
20794;SDS011;28087;-33.874;151.240;2023-12-20T00:37:10;13.57;;;2.20;;
20794;SDS011;28087;-33.874;151.240;2023-12-20T00:40:17;14.07;;;2.22;;
20794;SDS011;28087;-33.874;151.240;2023-12-20T00:43:23;12.00;;;1.98;;
20794;SDS011;28087;-33.874;151.240;2023-12-20T00:46:29;10.63;;;1.95;;
20794;SDS011;28087;-33.874;151.240;2023-12-20T00:49:38;11.90;;;2.00;;
20794;SDS011;28087;-33.874;151.240;2023-12-20T00:52:45;9.30;;;1.70;;
20794;SDS011;28087;-33.874;151.240;2023-12-20T00:55:53;11.93;;;1.92;;
20794;SDS011;28087;-33.874;151.240;2023-12-20T00:58:59;12.05;;;1.80;;
20794;SDS011;28087;-33.874;151.240;2023-12-20T01:02:05;14.73;;;2.30;;
20794;SDS011;28087;-33.874;151.240;2023-12-20T01:05:14;14.18;;;2.42;;
20794;SDS011;28087;-33.874;151.240;2023-12-20T01:08:23;12.00;;;2.25;;
20794;SDS011;28087;-33.874;151.240;2023-12-20T01:11:31;14.40;;;2.30;;
20794;SDS011;28087;-33.874;151.240;2023-12-20T01:14:37;11.75;;;2.03;;
20794;SDS011;28087;-33.874;151.240;2023-12-20T01:17:44;10.27;;;2.17;;
20794;SDS011;28087;-33.874;151.240;2023-12-20T01:20:55;11.68;;;1.73;;
20794;SDS011;28087;-33.874;151.240;2023-12-20T01:24:01;12.30;;;2.47;;
20794;SDS011;28087;-33.874;151.240;2023-12-20T01:27:08;14.85;;;2.50;;
20794;SDS011;28087;-33.874;151.240;2023-12-20T01:30:14;12.55;;;2.22;;
20794;SDS011;28087;-33.874;151.240;2023-12-20T01:33:21;14.82;;;2.20;;
20794;SDS011;28087;-33.874;151.240;2023-12-20T01:36:29;11.45;;;2.15;;
20794;SDS011;28087;-33.874;151.240;2023-12-20T01:39:30;10.25;;;2.17;;
20794;SDS011;28087;-33.874;151.240;2023-12-20T01:42:29;13.10;;;2.08;;
20794;SDS011;28087;-33.874;151.240;2023-12-20T01:45:36;12.77;;;2.10;;
20794;SDS011;28087;-33.874;151.240;2023-12-20T01:48:44;14.70;;;2.53;;
20794;SDS011;28087;-33.874;151.240;2023-12-20T01:51:53;11.98;;;2.13;;
20794;SDS011;28087;-33.874;151.240;2023-12-20T01:55:00;13.98;;;2.58;;
20794;SDS011;28087;-33.874;151.240;2023-12-20T01:58:11;13.38;;;2.30;;
20794;SDS011;28087;-33.874;151.240;2023-12-20T02:01:17;12.05;;;2.40;;
20794;SDS011;28087;-33.874;151.240;2023-12-20T02:04:25;11.20;;;2.05;;
20794;SDS011;28087;-33.874;151.240;2023-12-20T02:07:34;9.48;;;2.03;;
20794;SDS011;28087;-33.874;151.240;2023-12-20T02:10:35;12.13;;;2.35;;
20794;SDS011;28087;-33.874;151.240;2023-12-20T02:13:35;11.43;;;1.98;;
20794;SDS011;28087;-33.874;151.240;2023-12-20T02:16:41;11.38;;;2.25;;
20794;SDS011;28087;-33.874;151.240;2023-12-20T02:19:48;11.90;;;2.40;;
20794;SDS011;28087;-33.874;151.240;2023-12-20T02:22:58;15.23;;;2.47;;
20794;SDS011;28087;-33.874;151.240;2023-12-20T02:26:04;14.43;;;2.35;;
20794;SDS011;28087;-33.874;151.240;2023-12-20T02:29:11;11.48;;;2.22;;
20794;SDS011;28087;-33.874;151.240;2023-12-20T02:32:17;15.07;;;2.22;;
20794;SDS011;28087;-33.874;151.240;2023-12-20T02:35:24;11.05;;;2.20;;
20794;SDS011;28087;-33.874;151.240;2023-12-20T02:38:32;11.73;;;2.10;;
20794;SDS011;28087;-33.874;151.240;2023-12-20T02:41:39;11.00;;;2.17;;
20794;SDS011;28087;-33.874;151.240;2023-12-20T02:44:46;12.23;;;2.10;;
20794;SDS011;28087;-33.874;151.240;2023-12-20T02:47:52;9.82;;;1.95;;
20794;SDS011;28087;-33.874;151.240;2023-12-20T02:50:58;11.32;;;1.80;;
20794;SDS011;28087;-33.874;151.240;2023-12-20T02:54:07;13.13;;;3.00;;
20794;SDS011;28087;-33.874;151.240;2023-12-20T02:57:13;38.42;;;14.88;;
20794;SDS011;28087;-33.874;151.240;2023-12-20T03:00:19;58.75;;;24.25;;
20794;SDS011;28087;-33.874;151.240;2023-12-20T03:03:26;42.95;;;16.40;;
20794;SDS011;28087;-33.874;151.240;2023-12-20T03:06:32;26.60;;;9.45;;
20794;SDS011;28087;-33.874;151.240;2023-12-20T03:09:40;13.68;;;3.22;;
20794;SDS011;28087;-33.874;151.240;2023-12-20T03:13:06;15.95;;;4.70;;
20794;SDS011;28087;-33.874;151.240;2023-12-20T03:16:13;14.93;;;3.72;;
20794;SDS011;28087;-33.874;151.240;2023-12-20T03:19:24;14.48;;;2.72;;
20794;SDS011;28087;-33.874;151.240;2023-12-20T03:22:32;14.57;;;2.70;;
20794;SDS011;28087;-33.874;151.240;2023-12-20T03:25:41;11.02;;;2.38;;
20794;SDS011;28087;-33.874;151.240;2023-12-20T03:28:48;13.00;;;2.33;;
20794;SDS011;28087;-33.874;151.240;2023-12-20T03:31:55;12.52;;;2.78;;
20794;SDS011;28087;-33.874;151.240;2023-12-20T03:35:01;15.63;;;2.00;;
20794;SDS011;28087;-33.874;151.240;2023-12-20T03:38:08;11.20;;;2.28;;
20794;SDS011;28087;-33.874;151.240;2023-12-20T03:41:17;11.65;;;2.00;;
20794;SDS011;28087;-33.874;151.240;2023-12-20T03:44:27;9.95;;;1.73;;
20794;SDS011;28087;-33.874;151.240;2023-12-20T03:47:34;9.73;;;2.03;;
20794;SDS011;28087;-33.874;151.240;2023-12-20T03:50:42;9.55;;;1.67;;
20794;SDS011;28087;-33.874;151.240;2023-12-20T03:53:48;9.75;;;1.65;;
20794;SDS011;28087;-33.874;151.240;2023-12-20T03:56:58;7.75;;;1.50;;
20794;SDS011;28087;-33.874;151.240;2023-12-20T04:00:06;8.82;;;1.45;;
20794;SDS011;28087;-33.874;151.240;2023-12-20T04:03:13;9.13;;;1.55;;
20794;SDS011;28087;-33.874;151.240;2023-12-20T04:06:21;7.03;;;1.67;;
20794;SDS011;28087;-33.874;151.240;2023-12-20T04:09:27;8.30;;;1.70;;
20794;SDS011;28087;-33.874;151.240;2023-12-20T04:12:35;5.85;;;1.30;;
20794;SDS011;28087;-33.874;151.240;2023-12-20T04:15:46;6.53;;;1.38;;
20794;SDS011;28087;-33.874;151.240;2023-12-20T04:18:53;12.38;;;1.90;;
20794;SDS011;28087;-33.874;151.240;2023-12-20T04:22:02;8.88;;;1.92;;
20794;SDS011;28087;-33.874;151.240;2023-12-20T04:25:10;10.40;;;1.60;;
20794;SDS011;28087;-33.874;151.240;2023-12-20T04:28:31;9.00;;;1.40;;
20794;SDS011;28087;-33.874;151.240;2023-12-20T04:31:43;12.38;;;1.55;;
20794;SDS011;28087;-33.874;151.240;2023-12-20T04:34:52;8.13;;;1.48;;
20794;SDS011;28087;-33.874;151.240;2023-12-20T04:38:03;8.82;;;1.40;;
20794;SDS011;28087;-33.874;151.240;2023-12-20T04:41:09;9.63;;;1.50;;
20794;SDS011;28087;-33.874;151.240;2023-12-20T04:44:18;9.18;;;1.85;;
20794;SDS011;28087;-33.874;151.240;2023-12-20T04:47:23;10.13;;;1.60;;
20794;SDS011;28087;-33.874;151.240;2023-12-20T04:50:31;6.85;;;1.42;;
20794;SDS011;28087;-33.874;151.240;2023-12-20T04:53:38;7.93;;;1.40;;
20794;SDS011;28087;-33.874;151.240;2023-12-20T04:56:45;9.93;;;1.60;;
20794;SDS011;28087;-33.874;151.240;2023-12-20T04:59:53;11.05;;;1.83;;
20794;SDS011;28087;-33.874;151.240;2023-12-20T05:03:00;9.90;;;1.58;;
20794;SDS011;28087;-33.874;151.240;2023-12-20T05:06:07;6.32;;;1.45;;
20794;SDS011;28087;-33.874;151.240;2023-12-20T05:09:13;6.93;;;1.38;;
20794;SDS011;28087;-33.874;151.240;2023-12-20T05:12:19;13.30;;;2.20;;
20794;SDS011;28087;-33.874;151.240;2023-12-20T05:15:28;11.65;;;1.98;;
20794;SDS011;28087;-33.874;151.240;2023-12-20T05:18:34;12.25;;;1.83;;
20794;SDS011;28087;-33.874;151.240;2023-12-20T05:21:42;10.73;;;2.00;;
20794;SDS011;28087;-33.874;151.240;2023-12-20T05:24:48;8.93;;;1.60;;
20794;SDS011;28087;-33.874;151.240;2023-12-20T05:27:55;7.53;;;1.30;;
20794;SDS011;28087;-33.874;151.240;2023-12-20T05:31:04;10.30;;;1.73;;
20794;SDS011;28087;-33.874;151.240;2023-12-20T05:34:11;14.02;;;2.00;;
20794;SDS011;28087;-33.874;151.240;2023-12-20T05:37:18;9.38;;;1.40;;
20794;SDS011;28087;-33.874;151.240;2023-12-20T05:40:24;12.57;;;1.88;;
20794;SDS011;28087;-33.874;151.240;2023-12-20T05:43:30;9.07;;;1.88;;
20794;SDS011;28087;-33.874;151.240;2023-12-20T05:46:38;11.07;;;2.20;;
20794;SDS011;28087;-33.874;151.240;2023-12-20T05:49:45;9.40;;;1.88;;
20794;SDS011;28087;-33.874;151.240;2023-12-20T05:52:51;9.13;;;1.60;;
20794;SDS011;28087;-33.874;151.240;2023-12-20T05:55:57;9.90;;;1.70;;
20794;SDS011;28087;-33.874;151.240;2023-12-20T05:59:03;12.10;;;1.65;;
20794;SDS011;28087;-33.874;151.240;2023-12-20T06:02:12;8.80;;;1.70;;
20794;SDS011;28087;-33.874;151.240;2023-12-20T06:05:12;12.05;;;2.00;;
20794;SDS011;28087;-33.874;151.240;2023-12-20T06:08:13;10.85;;;1.80;;
20794;SDS011;28087;-33.874;151.240;2023-12-20T06:11:19;11.88;;;1.73;;
20794;SDS011;28087;-33.874;151.240;2023-12-20T06:14:26;7.45;;;1.42;;
20794;SDS011;28087;-33.874;151.240;2023-12-20T06:17:34;10.98;;;1.50;;
20794;SDS011;28087;-33.874;151.240;2023-12-20T06:20:41;10.48;;;1.90;;
20794;SDS011;28087;-33.874;151.240;2023-12-20T06:23:47;7.03;;;1.30;;
20794;SDS011;28087;-33.874;151.240;2023-12-20T06:26:54;9.95;;;1.50;;
20794;SDS011;28087;-33.874;151.240;2023-12-20T06:30:00;7.85;;;1.30;;
20794;SDS011;28087;-33.874;151.240;2023-12-20T06:33:09;12.68;;;1.50;;
20794;SDS011;28087;-33.874;151.240;2023-12-20T06:36:19;7.40;;;1.58;;
20794;SDS011;28087;-33.874;151.240;2023-12-20T06:39:27;9.55;;;1.50;;
20794;SDS011;28087;-33.874;151.240;2023-12-20T06:42:33;11.98;;;1.85;;
20794;SDS011;28087;-33.874;151.240;2023-12-20T06:45:53;11.73;;;1.90;;
20794;SDS011;28087;-33.874;151.240;2023-12-20T06:49:01;9.95;;;1.90;;
20794;SDS011;28087;-33.874;151.240;2023-12-20T06:52:09;6.78;;;1.50;;
20794;SDS011;28087;-33.874;151.240;2023-12-20T06:55:16;11.20;;;1.70;;
20794;SDS011;28087;-33.874;151.240;2023-12-20T06:58:23;13.20;;;2.60;;
20794;SDS011;28087;-33.874;151.240;2023-12-20T07:01:30;15.05;;;2.38;;
20794;SDS011;28087;-33.874;151.240;2023-12-20T07:04:41;12.52;;;1.73;;
20794;SDS011;28087;-33.874;151.240;2023-12-20T07:07:46;12.88;;;1.70;;
20794;SDS011;28087;-33.874;151.240;2023-12-20T07:10:53;12.35;;;1.90;;
20794;SDS011;28087;-33.874;151.240;2023-12-20T07:13:59;12.73;;;1.90;;
20794;SDS011;28087;-33.874;151.240;2023-12-20T07:17:07;10.63;;;2.33;;
20794;SDS011;28087;-33.874;151.240;2023-12-20T07:20:16;12.48;;;2.40;;
20794;SDS011;28087;-33.874;151.240;2023-12-20T07:23:22;10.85;;;2.15;;
20794;SDS011;28087;-33.874;151.240;2023-12-20T07:26:29;13.57;;;2.47;;
20794;SDS011;28087;-33.874;151.240;2023-12-20T07:29:36;9.93;;;1.90;;
20794;SDS011;28087;-33.874;151.240;2023-12-20T07:32:42;10.52;;;2.03;;
20794;SDS011;28087;-33.874;151.240;2023-12-20T07:35:52;16.77;;;2.20;;
20794;SDS011;28087;-33.874;151.240;2023-12-20T07:38:59;12.77;;;2.05;;
20794;SDS011;28087;-33.874;151.240;2023-12-20T07:42:02;10.45;;;2.10;;
20794;SDS011;28087;-33.874;151.240;2023-12-20T07:45:01;10.27;;;1.90;;
20794;SDS011;28087;-33.874;151.240;2023-12-20T07:48:09;8.98;;;1.95;;
20794;SDS011;28087;-33.874;151.240;2023-12-20T07:51:18;8.77;;;1.80;;
20794;SDS011;28087;-33.874;151.240;2023-12-20T07:54:23;10.00;;;2.17;;
20794;SDS011;28087;-33.874;151.240;2023-12-20T07:57:29;9.43;;;1.75;;
20794;SDS011;28087;-33.874;151.240;2023-12-20T08:00:36;11.77;;;2.00;;
20794;SDS011;28087;-33.874;151.240;2023-12-20T08:03:42;11.27;;;2.13;;
20794;SDS011;28087;-33.874;151.240;2023-12-20T08:06:51;10.85;;;2.00;;
20794;SDS011;28087;-33.874;151.240;2023-12-20T08:09:59;8.35;;;2.28;;
20794;SDS011;28087;-33.874;151.240;2023-12-20T08:13:06;10.60;;;2.03;;
20794;SDS011;28087;-33.874;151.240;2023-12-20T08:16:13;11.63;;;2.00;;
20794;SDS011;28087;-33.874;151.240;2023-12-20T08:19:21;8.38;;;1.88;;
20794;SDS011;28087;-33.874;151.240;2023-12-20T08:22:31;8.80;;;2.13;;
20794;SDS011;28087;-33.874;151.240;2023-12-20T08:25:37;8.65;;;2.05;;
20794;SDS011;28087;-33.874;151.240;2023-12-20T08:28:43;10.82;;;1.75;;
20794;SDS011;28087;-33.874;151.240;2023-12-20T08:31:51;8.93;;;1.90;;
20794;SDS011;28087;-33.874;151.240;2023-12-20T08:34:51;13.70;;;2.70;;
20794;SDS011;28087;-33.874;151.240;2023-12-20T08:38:02;10.98;;;2.60;;
20794;SDS011;28087;-33.874;151.240;2023-12-20T08:41:09;7.63;;;2.47;;
20794;SDS011;28087;-33.874;151.240;2023-12-20T08:44:16;10.68;;;3.08;;
20794;SDS011;28087;-33.874;151.240;2023-12-20T08:47:22;8.90;;;2.50;;
20794;SDS011;28087;-33.874;151.240;2023-12-20T08:50:29;6.80;;;1.98;;
20794;SDS011;28087;-33.874;151.240;2023-12-20T08:53:38;5.72;;;1.67;;
20794;SDS011;28087;-33.874;151.240;2023-12-20T08:56:43;10.13;;;1.80;;
20794;SDS011;28087;-33.874;151.240;2023-12-20T08:59:49;10.23;;;1.70;;
20794;SDS011;28087;-33.874;151.240;2023-12-20T09:02:56;8.55;;;2.00;;
20794;SDS011;28087;-33.874;151.240;2023-12-20T09:06:02;10.90;;;1.77;;
20794;SDS011;28087;-33.874;151.240;2023-12-20T09:09:11;9.50;;;2.05;;
20794;SDS011;28087;-33.874;151.240;2023-12-20T09:12:17;5.93;;;1.63;;
20794;SDS011;28087;-33.874;151.240;2023-12-20T09:15:23;8.00;;;1.95;;
20794;SDS011;28087;-33.874;151.240;2023-12-20T09:18:30;10.75;;;1.90;;
20794;SDS011;28087;-33.874;151.240;2023-12-20T09:21:37;11.00;;;1.92;;
20794;SDS011;28087;-33.874;151.240;2023-12-20T09:25:01;8.50;;;1.80;;
20794;SDS011;28087;-33.874;151.240;2023-12-20T09:28:07;9.30;;;2.22;;
20794;SDS011;28087;-33.874;151.240;2023-12-20T09:31:14;8.90;;;1.80;;
20794;SDS011;28087;-33.874;151.240;2023-12-20T09:34:15;7.43;;;1.80;;
20794;SDS011;28087;-33.874;151.240;2023-12-20T09:37:17;12.88;;;2.45;;
20794;SDS011;28087;-33.874;151.240;2023-12-20T09:40:25;9.68;;;2.08;;
20794;SDS011;28087;-33.874;151.240;2023-12-20T09:43:32;8.38;;;1.90;;
20794;SDS011;28087;-33.874;151.240;2023-12-20T09:46:42;10.55;;;1.95;;
20794;SDS011;28087;-33.874;151.240;2023-12-20T09:49:48;9.55;;;2.28;;
20794;SDS011;28087;-33.874;151.240;2023-12-20T09:52:56;11.30;;;1.98;;
20794;SDS011;28087;-33.874;151.240;2023-12-20T09:56:08;10.25;;;1.75;;
20794;SDS011;28087;-33.874;151.240;2023-12-20T09:59:14;9.48;;;2.22;;
20794;SDS011;28087;-33.874;151.240;2023-12-20T10:02:22;12.63;;;1.88;;
20794;SDS011;28087;-33.874;151.240;2023-12-20T10:05:30;8.27;;;2.00;;
20794;SDS011;28087;-33.874;151.240;2023-12-20T10:08:37;7.53;;;1.95;;
20794;SDS011;28087;-33.874;151.240;2023-12-20T10:11:46;10.88;;;2.13;;
20794;SDS011;28087;-33.874;151.240;2023-12-20T10:14:53;9.48;;;1.80;;
20794;SDS011;28087;-33.874;151.240;2023-12-20T10:17:59;9.13;;;1.90;;
20794;SDS011;28087;-33.874;151.240;2023-12-20T10:21:06;8.75;;;1.95;;
20794;SDS011;28087;-33.874;151.240;2023-12-20T10:24:17;8.75;;;1.67;;
20794;SDS011;28087;-33.874;151.240;2023-12-20T10:27:26;10.50;;;1.98;;
20794;SDS011;28087;-33.874;151.240;2023-12-20T10:30:32;7.93;;;1.95;;
20794;SDS011;28087;-33.874;151.240;2023-12-20T10:33:40;12.95;;;2.42;;
20794;SDS011;28087;-33.874;151.240;2023-12-20T10:36:40;12.75;;;2.00;;
20794;SDS011;28087;-33.874;151.240;2023-12-20T10:39:41;8.90;;;2.00;;
20794;SDS011;28087;-33.874;151.240;2023-12-20T10:42:52;9.00;;;1.60;;
20794;SDS011;28087;-33.874;151.240;2023-12-20T10:46:00;7.32;;;1.65;;
20794;SDS011;28087;-33.874;151.240;2023-12-20T10:49:08;9.95;;;1.83;;
20794;SDS011;28087;-33.874;151.240;2023-12-20T10:52:17;8.35;;;1.60;;
20794;SDS011;28087;-33.874;151.240;2023-12-20T10:55:24;11.07;;;2.05;;
20794;SDS011;28087;-33.874;151.240;2023-12-20T10:58:33;12.02;;;1.70;;
20794;SDS011;28087;-33.874;151.240;2023-12-20T11:01:41;9.20;;;1.90;;
20794;SDS011;28087;-33.874;151.240;2023-12-20T11:04:50;6.53;;;1.60;;
20794;SDS011;28087;-33.874;151.240;2023-12-20T11:08:02;7.30;;;1.70;;
20794;SDS011;28087;-33.874;151.240;2023-12-20T11:11:10;8.25;;;1.83;;
20794;SDS011;28087;-33.874;151.240;2023-12-20T11:14:22;9.85;;;1.60;;
20794;SDS011;28087;-33.874;151.240;2023-12-20T11:17:29;9.48;;;1.80;;
20794;SDS011;28087;-33.874;151.240;2023-12-20T11:20:39;6.95;;;1.60;;
20794;SDS011;28087;-33.874;151.240;2023-12-20T11:23:45;5.68;;;1.60;;
20794;SDS011;28087;-33.874;151.240;2023-12-20T11:26:51;7.70;;;2.10;;
20794;SDS011;28087;-33.874;151.240;2023-12-20T11:30:03;10.50;;;1.95;;
20794;SDS011;28087;-33.874;151.240;2023-12-20T11:33:09;7.63;;;1.50;;
20794;SDS011;28087;-33.874;151.240;2023-12-20T11:36:18;9.38;;;1.83;;
20794;SDS011;28087;-33.874;151.240;2023-12-20T11:39:26;8.85;;;1.58;;
20794;SDS011;28087;-33.874;151.240;2023-12-20T11:42:33;7.43;;;1.70;;
20794;SDS011;28087;-33.874;151.240;2023-12-20T11:45:36;7.68;;;1.50;;
20794;SDS011;28087;-33.874;151.240;2023-12-20T11:48:37;5.18;;;1.30;;
20794;SDS011;28087;-33.874;151.240;2023-12-20T11:51:44;6.28;;;1.40;;
20794;SDS011;28087;-33.874;151.240;2023-12-20T11:54:51;6.40;;;1.50;;
20794;SDS011;28087;-33.874;151.240;2023-12-20T11:58:01;7.30;;;1.42;;
20794;SDS011;28087;-33.874;151.240;2023-12-20T12:01:11;5.05;;;1.35;;
20794;SDS011;28087;-33.874;151.240;2023-12-20T12:04:17;5.15;;;1.30;;
20794;SDS011;28087;-33.874;151.240;2023-12-20T12:07:18;3.75;;;1.10;;
20794;SDS011;28087;-33.874;151.240;2023-12-20T12:10:21;4.97;;;1.38;;
20794;SDS011;28087;-33.874;151.240;2023-12-20T12:13:28;5.18;;;1.33;;
20794;SDS011;28087;-33.874;151.240;2023-12-20T12:16:40;6.95;;;1.40;;
20794;SDS011;28087;-33.874;151.240;2023-12-20T12:20:08;8.77;;;1.48;;
20794;SDS011;28087;-33.874;151.240;2023-12-20T12:23:15;5.82;;;1.20;;
20794;SDS011;28087;-33.874;151.240;2023-12-20T12:26:30;6.85;;;1.20;;
20794;SDS011;28087;-33.874;151.240;2023-12-20T12:29:37;7.00;;;1.30;;
20794;SDS011;28087;-33.874;151.240;2023-12-20T12:32:45;5.13;;;1.35;;
20794;SDS011;28087;-33.874;151.240;2023-12-20T12:35:52;6.32;;;1.38;;
20794;SDS011;28087;-33.874;151.240;2023-12-20T12:39:02;3.70;;;1.30;;
20794;SDS011;28087;-33.874;151.240;2023-12-20T12:42:11;5.80;;;1.45;;
20794;SDS011;28087;-33.874;151.240;2023-12-20T12:45:21;4.95;;;1.45;;
20794;SDS011;28087;-33.874;151.240;2023-12-20T12:48:24;5.97;;;1.38;;
20794;SDS011;28087;-33.874;151.240;2023-12-20T12:51:25;8.77;;;1.30;;
20794;SDS011;28087;-33.874;151.240;2023-12-20T12:54:31;5.05;;;1.40;;
20794;SDS011;28087;-33.874;151.240;2023-12-20T12:57:39;4.57;;;1.23;;
20794;SDS011;28087;-33.874;151.240;2023-12-20T13:00:45;7.35;;;1.50;;
20794;SDS011;28087;-33.874;151.240;2023-12-20T13:03:54;6.50;;;1.30;;
20794;SDS011;28087;-33.874;151.240;2023-12-20T13:07:03;3.85;;;1.17;;
20794;SDS011;28087;-33.874;151.240;2023-12-20T13:10:09;6.55;;;1.23;;
20794;SDS011;28087;-33.874;151.240;2023-12-20T13:13:16;5.03;;;1.20;;
20794;SDS011;28087;-33.874;151.240;2023-12-20T13:16:22;5.25;;;1.38;;
20794;SDS011;28087;-33.874;151.240;2023-12-20T13:19:33;5.00;;;1.33;;
20794;SDS011;28087;-33.874;151.240;2023-12-20T13:22:39;5.00;;;1.25;;
20794;SDS011;28087;-33.874;151.240;2023-12-20T13:25:46;5.45;;;1.25;;
20794;SDS011;28087;-33.874;151.240;2023-12-20T13:28:52;2.92;;;1.13;;
20794;SDS011;28087;-33.874;151.240;2023-12-20T13:31:58;6.10;;;1.20;;
20794;SDS011;28087;-33.874;151.240;2023-12-20T13:35:07;3.88;;;1.00;;
20794;SDS011;28087;-33.874;151.240;2023-12-20T13:38:13;4.78;;;1.20;;
20794;SDS011;28087;-33.874;151.240;2023-12-20T13:41:19;4.18;;;1.02;;
20794;SDS011;28087;-33.874;151.240;2023-12-20T13:44:25;4.07;;;1.20;;
20794;SDS011;28087;-33.874;151.240;2023-12-20T13:47:31;2.47;;;1.10;;
20794;SDS011;28087;-33.874;151.240;2023-12-20T13:50:44;3.03;;;1.00;;
20794;SDS011;28087;-33.874;151.240;2023-12-20T13:53:50;3.38;;;1.00;;
20794;SDS011;28087;-33.874;151.240;2023-12-20T13:56:57;2.85;;;0.90;;
20794;SDS011;28087;-33.874;151.240;2023-12-20T14:00:14;3.38;;;0.80;;
20794;SDS011;28087;-33.874;151.240;2023-12-20T14:03:15;4.57;;;1.00;;
20794;SDS011;28087;-33.874;151.240;2023-12-20T14:06:23;2.55;;;0.80;;
20794;SDS011;28087;-33.874;151.240;2023-12-20T14:09:32;3.13;;;0.80;;
20794;SDS011;28087;-33.874;151.240;2023-12-20T14:12:41;5.18;;;0.82;;
20794;SDS011;28087;-33.874;151.240;2023-12-20T14:15:48;2.90;;;0.80;;
20794;SDS011;28087;-33.874;151.240;2023-12-20T14:18:56;4.82;;;0.88;;
20794;SDS011;28087;-33.874;151.240;2023-12-20T14:22:04;4.13;;;0.80;;
20794;SDS011;28087;-33.874;151.240;2023-12-20T14:25:13;3.80;;;0.85;;
20794;SDS011;28087;-33.874;151.240;2023-12-20T14:28:37;3.92;;;1.00;;
20794;SDS011;28087;-33.874;151.240;2023-12-20T14:31:44;4.28;;;0.93;;
20794;SDS011;28087;-33.874;151.240;2023-12-20T14:34:50;4.78;;;0.90;;
20794;SDS011;28087;-33.874;151.240;2023-12-20T14:38:01;4.97;;;1.02;;
20794;SDS011;28087;-33.874;151.240;2023-12-20T14:41:07;4.40;;;0.90;;
20794;SDS011;28087;-33.874;151.240;2023-12-20T14:44:17;3.92;;;0.80;;
20794;SDS011;28087;-33.874;151.240;2023-12-20T14:47:23;3.83;;;0.85;;
20794;SDS011;28087;-33.874;151.240;2023-12-20T14:50:33;4.63;;;0.85;;
20794;SDS011;28087;-33.874;151.240;2023-12-20T14:53:41;2.63;;;0.80;;
20794;SDS011;28087;-33.874;151.240;2023-12-20T14:56:47;2.70;;;0.90;;
20794;SDS011;28087;-33.874;151.240;2023-12-20T14:59:53;2.47;;;0.88;;
20794;SDS011;28087;-33.874;151.240;2023-12-20T15:03:00;3.38;;;0.98;;
20794;SDS011;28087;-33.874;151.240;2023-12-20T15:06:01;4.95;;;1.00;;
20794;SDS011;28087;-33.874;151.240;2023-12-20T15:09:03;2.25;;;0.80;;
20794;SDS011;28087;-33.874;151.240;2023-12-20T15:12:10;4.05;;;0.80;;
20794;SDS011;28087;-33.874;151.240;2023-12-20T15:15:17;2.28;;;0.82;;
20794;SDS011;28087;-33.874;151.240;2023-12-20T15:18:24;1.50;;;0.80;;
20794;SDS011;28087;-33.874;151.240;2023-12-20T15:21:30;3.55;;;0.75;;
20794;SDS011;28087;-33.874;151.240;2023-12-20T15:24:39;2.60;;;0.90;;
20794;SDS011;28087;-33.874;151.240;2023-12-20T15:27:47;3.03;;;0.70;;
20794;SDS011;28087;-33.874;151.240;2023-12-20T15:30:54;2.97;;;0.77;;
20794;SDS011;28087;-33.874;151.240;2023-12-20T15:34:02;4.22;;;0.90;;
20794;SDS011;28087;-33.874;151.240;2023-12-20T15:37:10;4.57;;;0.80;;
20794;SDS011;28087;-33.874;151.240;2023-12-20T15:40:19;2.35;;;0.70;;
20794;SDS011;28087;-33.874;151.240;2023-12-20T15:43:28;2.45;;;0.70;;
20794;SDS011;28087;-33.874;151.240;2023-12-20T15:46:34;3.13;;;0.88;;
20794;SDS011;28087;-33.874;151.240;2023-12-20T15:49:41;2.95;;;0.80;;
20794;SDS011;28087;-33.874;151.240;2023-12-20T15:52:48;0.80;;;0.52;;
20794;SDS011;28087;-33.874;151.240;2023-12-20T15:55:58;2.78;;;0.77;;
20794;SDS011;28087;-33.874;151.240;2023-12-20T15:59:05;2.17;;;0.70;;
20794;SDS011;28087;-33.874;151.240;2023-12-20T16:02:11;1.60;;;0.80;;
20794;SDS011;28087;-33.874;151.240;2023-12-20T16:05:18;2.47;;;0.70;;
20794;SDS011;28087;-33.874;151.240;2023-12-20T16:08:19;1.67;;;0.68;;
20794;SDS011;28087;-33.874;151.240;2023-12-20T16:11:20;3.03;;;0.80;;
20794;SDS011;28087;-33.874;151.240;2023-12-20T16:14:26;3.05;;;0.90;;
20794;SDS011;28087;-33.874;151.240;2023-12-20T16:17:33;3.90;;;0.80;;
20794;SDS011;28087;-33.874;151.240;2023-12-20T16:20:39;3.53;;;0.73;;
20794;SDS011;28087;-33.874;151.240;2023-12-20T16:23:45;1.60;;;0.60;;
20794;SDS011;28087;-33.874;151.240;2023-12-20T16:26:53;3.03;;;1.00;;
20794;SDS011;28087;-33.874;151.240;2023-12-20T16:30:00;2.85;;;0.75;;
20794;SDS011;28087;-33.874;151.240;2023-12-20T16:33:05;3.83;;;0.60;;
20794;SDS011;28087;-33.874;151.240;2023-12-20T16:36:12;2.42;;;0.60;;
20794;SDS011;28087;-33.874;151.240;2023-12-20T16:39:19;4.18;;;0.70;;
20794;SDS011;28087;-33.874;151.240;2023-12-20T16:42:26;2.72;;;0.70;;
20794;SDS011;28087;-33.874;151.240;2023-12-20T16:45:26;2.55;;;0.68;;
20794;SDS011;28087;-33.874;151.240;2023-12-20T16:48:25;2.25;;;0.60;;
20794;SDS011;28087;-33.874;151.240;2023-12-20T16:51:32;1.80;;;0.60;;
20794;SDS011;28087;-33.874;151.240;2023-12-20T16:54:39;2.40;;;0.65;;
20794;SDS011;28087;-33.874;151.240;2023-12-20T16:57:48;1.90;;;0.70;;
20794;SDS011;28087;-33.874;151.240;2023-12-20T17:00:54;3.13;;;0.68;;
20794;SDS011;28087;-33.874;151.240;2023-12-20T17:04:01;1.98;;;0.57;;
20794;SDS011;28087;-33.874;151.240;2023-12-20T17:07:07;3.33;;;0.70;;
20794;SDS011;28087;-33.874;151.240;2023-12-20T17:10:08;2.38;;;0.60;;
20794;SDS011;28087;-33.874;151.240;2023-12-20T17:13:11;3.67;;;0.70;;
20794;SDS011;28087;-33.874;151.240;2023-12-20T17:16:17;3.03;;;1.00;;
20794;SDS011;28087;-33.874;151.240;2023-12-20T17:19:24;2.00;;;0.68;;
20794;SDS011;28087;-33.874;151.240;2023-12-20T17:22:33;2.30;;;0.70;;
20794;SDS011;28087;-33.874;151.240;2023-12-20T17:25:38;3.35;;;0.60;;
20794;SDS011;28087;-33.874;151.240;2023-12-20T17:28:46;2.28;;;0.70;;
20794;SDS011;28087;-33.874;151.240;2023-12-20T17:31:53;2.97;;;0.68;;
20794;SDS011;28087;-33.874;151.240;2023-12-20T17:34:59;1.80;;;0.80;;
20794;SDS011;28087;-33.874;151.240;2023-12-20T17:38:06;3.38;;;1.13;;
20794;SDS011;28087;-33.874;151.240;2023-12-20T17:41:13;4.20;;;0.70;;
20794;SDS011;28087;-33.874;151.240;2023-12-20T17:44:21;2.38;;;0.70;;
20794;SDS011;28087;-33.874;151.240;2023-12-20T17:47:26;3.08;;;0.70;;
20794;SDS011;28087;-33.874;151.240;2023-12-20T17:50:33;1.55;;;0.60;;
20794;SDS011;28087;-33.874;151.240;2023-12-20T17:53:39;1.75;;;0.55;;